createdAt,value
2019-03-04T00:01:12.431Z,16.71
2019-03-04T00:03:41.746Z,16.53
2019-03-04T00:06:10.977Z,17.00
2019-03-04T00:08:40.246Z,17.19
2019-03-04T00:11:09.506Z,16.97
2019-03-04T00:13:38.791Z,17.24
2019-03-04T00:16:08.146Z,17.31
2019-03-04T00:18:37.413Z,17.10
2019-03-04T00:21:06.669Z,17.50
2019-03-04T00:23:35.921Z,17.83
2019-03-04T00:26:05.218Z,17.75
2019-03-04T00:28:34.481Z,16.81
2019-03-04T00:31:03.776Z,17.04
2019-03-04T00:33:33.027Z,16.95
2019-03-04T00:36:02.273Z,16.97
2019-03-04T00:38:31.516Z,16.58
2019-03-04T00:41:00.827Z,16.64
2019-03-04T00:43:30.090Z,17.01
2019-03-04T00:45:59.377Z,17.46
2019-03-04T00:48:28.711Z,17.46
2019-03-04T00:50:57.913Z,17.31
2019-03-04T00:53:27.188Z,16.73
2019-03-04T00:55:56.411Z,16.72
2019-03-04T00:58:25.701Z,16.99
2019-03-04T01:00:54.949Z,17.01
2019-03-04T01:03:24.196Z,17.12
2019-03-04T01:05:53.456Z,16.77
2019-03-04T01:08:22.725Z,17.04
2019-03-04T01:10:51.981Z,17.18
2019-03-04T01:13:21.240Z,17.14
2019-03-04T01:15:50.491Z,17.23
2019-03-04T01:18:19.750Z,16.97
2019-03-04T01:20:49.047Z,17.15
2019-03-04T01:23:18.273Z,16.98
2019-03-04T01:25:47.514Z,16.63
2019-03-04T01:28:16.772Z,16.73
2019-03-04T01:30:46.071Z,16.83
2019-03-04T01:33:15.292Z,16.74
2019-03-04T01:35:44.528Z,16.86
2019-03-04T01:38:13.821Z,16.93
2019-03-04T01:40:43.072Z,17.35
2019-03-04T01:43:12.383Z,17.13
2019-03-04T01:45:41.655Z,17.06
2019-03-04T01:48:11.014Z,17.16
2019-03-04T01:50:40.247Z,17.29
2019-03-04T01:53:09.523Z,16.84
2019-03-04T01:55:38.749Z,17.17
2019-03-04T01:58:08.012Z,16.76
2019-03-04T02:00:37.263Z,17.36
2019-03-04T02:03:06.543Z,17.01
2019-03-04T02:05:35.776Z,16.82
2019-03-04T02:08:05.048Z,16.56
2019-03-04T02:10:34.302Z,16.73
2019-03-04T02:13:03.576Z,16.85
2019-03-04T02:15:32.794Z,17.12
2019-03-04T02:18:02.043Z,16.85
2019-03-04T02:20:31.271Z,16.65
2019-03-04T02:23:00.507Z,16.54
2019-03-04T02:25:57.620Z,16.42
2019-03-04T02:28:26.886Z,16.60
2019-03-04T02:30:56.108Z,17.01
2019-03-04T02:33:25.334Z,16.75
2019-03-04T02:35:54.542Z,16.61
2019-03-04T02:38:23.790Z,16.72
2019-03-04T02:40:53.007Z,17.12
2019-03-04T02:43:22.261Z,16.85
2019-03-04T02:45:51.469Z,16.35
2019-03-04T02:48:20.752Z,16.55
2019-03-04T02:50:50.004Z,16.23
2019-03-04T02:53:19.254Z,16.45
2019-03-04T02:55:48.539Z,16.59
2019-03-04T02:58:17.782Z,16.66
2019-03-04T03:00:46.998Z,16.53
2019-03-04T03:03:16.226Z,16.80
2019-03-04T03:05:45.510Z,16.99
2019-03-04T03:17:45.939Z,16.57
2019-03-04T03:20:15.393Z,16.46
2019-03-04T03:22:44.632Z,16.36
2019-03-04T03:25:13.905Z,16.40
2019-03-04T03:27:43.130Z,16.13
2019-03-04T03:30:12.589Z,16.57
2019-03-04T03:32:41.829Z,15.98
2019-03-04T03:35:11.192Z,16.25
2019-03-04T03:37:40.515Z,16.28
2019-03-04T03:40:11.223Z,16.42
2019-03-04T03:42:40.483Z,16.65
2019-03-04T03:45:10.159Z,16.66
2019-03-04T03:47:39.450Z,16.76
2019-03-04T03:50:09.651Z,16.63
2019-03-04T03:52:38.898Z,16.64
2019-03-04T03:55:08.822Z,16.99
2019-03-04T03:57:38.080Z,16.83
2019-03-04T04:00:11.081Z,17.03
2019-03-04T04:02:40.347Z,16.79
2019-03-04T04:05:09.563Z,16.81
2019-03-04T04:07:38.820Z,16.95
2019-03-04T04:10:09.797Z,17.04
2019-03-04T04:12:39.046Z,16.91
2019-03-04T04:15:08.963Z,16.90
2019-03-04T04:17:38.213Z,17.00
2019-03-04T04:20:07.626Z,16.98
2019-03-04T04:22:36.985Z,16.88
2019-03-04T04:25:06.484Z,16.97
2019-03-04T04:27:36.228Z,16.64
2019-03-04T04:30:06.173Z,16.71
2019-03-04T04:32:35.443Z,16.76
2019-03-04T04:35:04.654Z,16.58
2019-03-04T04:37:33.891Z,16.55
2019-03-04T04:40:03.130Z,16.90
2019-03-04T04:42:32.344Z,16.81
2019-03-04T04:45:01.596Z,16.80
2019-03-04T04:47:30.864Z,17.12
2019-03-04T04:50:00.242Z,17.04
2019-03-04T04:52:29.532Z,17.13
2019-03-04T04:54:59.095Z,17.18
2019-03-04T04:57:28.305Z,16.97
2019-03-04T04:59:57.546Z,16.90
2019-03-04T05:02:26.797Z,17.01
2019-03-04T05:04:56.123Z,16.65
2019-03-04T05:07:25.449Z,16.72
2019-03-04T05:09:54.706Z,16.54
2019-03-04T05:12:23.939Z,16.92
2019-03-04T05:14:53.269Z,16.86
2019-03-04T05:17:22.522Z,16.71
2019-03-04T05:19:51.773Z,16.50
2019-03-04T05:22:21.005Z,16.57
2019-03-04T05:24:50.270Z,16.70
2019-03-04T05:27:19.526Z,16.53
2019-03-04T05:29:48.794Z,16.41
2019-03-04T05:32:18.026Z,16.51
2019-03-04T05:34:47.275Z,16.53
2019-03-04T05:37:16.522Z,16.86
2019-03-04T05:39:45.831Z,16.83
2019-03-04T05:42:15.062Z,16.55
2019-03-04T05:44:44.449Z,16.41
2019-03-04T05:47:13.734Z,16.10
2019-03-04T05:49:43.006Z,16.07
2019-03-04T05:52:12.279Z,15.61
2019-03-04T05:54:41.497Z,15.45
2019-03-04T05:57:10.769Z,15.10
2019-03-04T05:59:39.995Z,14.58
2019-03-04T06:02:10.545Z,13.84
2019-03-04T06:04:41.055Z,13.27
2019-03-04T06:07:15.767Z,12.66
2019-03-04T06:09:45.010Z,12.98
2019-03-04T06:12:14.356Z,12.86
2019-03-04T06:14:43.625Z,12.88
2019-03-04T06:17:12.893Z,12.96
2019-03-04T06:19:44.005Z,12.83
2019-03-04T06:22:13.126Z,12.96
2019-03-04T06:24:42.361Z,12.88
2019-03-04T06:27:11.686Z,12.87
2019-03-04T06:29:40.915Z,12.82
2019-03-04T06:32:10.200Z,12.97
2019-03-04T06:34:39.421Z,12.79
2019-03-04T06:37:08.683Z,12.90
2019-03-04T06:39:37.885Z,12.77
2019-03-04T06:42:07.188Z,12.69
2019-03-04T06:44:36.523Z,12.74
2019-03-04T06:47:05.925Z,13.08
2019-03-04T06:49:35.142Z,13.05
2019-03-04T06:52:04.582Z,13.19
2019-03-04T06:54:58.486Z,12.79
2019-03-04T06:57:33.813Z,12.70
2019-03-04T07:00:47.179Z,13.15
2019-03-04T07:03:28.298Z,13.25
2019-03-04T07:05:57.567Z,13.13
2019-03-04T07:09:11.466Z,13.00
2019-03-04T07:11:47.507Z,12.94
2019-03-04T07:14:16.773Z,12.64
2019-03-04T07:16:46.869Z,12.83
2019-03-04T07:19:41.415Z,12.83
2019-03-04T07:22:11.168Z,12.94
2019-03-04T07:31:31.105Z,12.64
2019-03-04T07:34:33.993Z,12.65
2019-03-04T07:40:35.081Z,13.76
2019-03-04T07:43:31.174Z,13.91
2019-03-04T07:46:01.783Z,13.66
2019-03-04T07:48:31.014Z,13.67
2019-03-04T07:51:11.965Z,13.85
2019-03-04T07:53:46.223Z,13.82
2019-03-04T07:56:12.290Z,13.93
2019-03-04T07:58:42.853Z,14.04
2019-03-04T08:01:12.111Z,13.86
2019-03-04T08:03:44.548Z,14.00
2019-03-04T08:06:13.873Z,13.85
2019-03-04T08:09:11.505Z,13.83
2019-03-04T08:12:32.305Z,13.89
2019-03-04T08:15:01.864Z,14.01
2019-03-04T08:17:31.237Z,14.21
2019-03-04T08:20:00.623Z,14.03
2019-03-04T08:22:29.952Z,13.83
2019-03-04T08:24:59.248Z,14.06
2019-03-04T08:27:28.577Z,13.72
2019-03-04T08:29:57.856Z,14.17
2019-03-04T08:32:27.159Z,13.77
2019-03-04T08:34:56.542Z,13.83
2019-03-04T08:37:25.890Z,14.02
2019-03-04T08:39:55.131Z,13.98
2019-03-04T08:42:24.500Z,14.22
2019-03-04T08:44:53.771Z,14.01
2019-03-04T08:47:23.174Z,14.39
2019-03-04T08:49:52.394Z,14.64
2019-03-04T08:52:21.783Z,14.99
2019-03-04T08:54:51.064Z,14.79
2019-03-04T08:57:20.339Z,15.05
2019-03-04T08:59:49.624Z,15.45
2019-03-04T09:02:18.892Z,16.30
2019-03-04T09:04:48.164Z,15.47
2019-03-04T09:07:17.470Z,15.57
2019-03-04T09:09:46.726Z,15.53
2019-03-04T09:12:15.998Z,16.13
2019-03-04T09:14:45.230Z,15.49
2019-03-04T09:17:14.462Z,15.29
2019-03-04T09:19:43.728Z,15.31
2019-03-04T09:22:13.005Z,15.25
2019-03-04T09:24:42.293Z,15.24
2019-03-04T09:27:11.593Z,15.46
2019-03-04T09:29:40.942Z,14.75
2019-03-04T09:32:10.241Z,14.46
2019-03-04T09:34:39.592Z,14.94
2019-03-04T09:37:08.921Z,14.22
2019-03-04T09:39:38.203Z,13.87
2019-03-04T09:42:22.806Z,13.82
2019-03-04T09:44:52.154Z,14.12
2019-03-04T09:47:21.452Z,13.80
2019-03-04T09:49:50.726Z,13.94
2019-03-04T09:52:20.032Z,14.09
2019-03-04T09:54:49.417Z,13.70
2019-03-04T09:57:18.697Z,14.04
2019-03-04T09:59:48.017Z,14.24
2019-03-04T10:02:21.901Z,14.00
2019-03-04T10:05:41.310Z,14.41
2019-03-04T10:08:19.021Z,14.90
2019-03-04T10:11:20.842Z,14.32
2019-03-04T10:14:42.799Z,14.40
2019-03-04T10:21:54.340Z,14.45
2019-03-04T10:24:56.529Z,14.76
2019-03-04T10:27:57.176Z,13.98
2019-03-04T10:31:15.098Z,14.71
2019-03-04T10:33:56.586Z,14.47
2019-03-04T10:37:10.554Z,14.44
2019-03-04T10:40:15.544Z,14.83
2019-03-04T10:43:34.533Z,14.94
2019-03-04T10:46:19.864Z,15.17
2019-03-04T10:48:49.465Z,14.30
2019-03-04T10:51:20.420Z,13.87
2019-03-04T10:53:50.472Z,14.22
2019-03-04T10:56:19.803Z,13.59
2019-03-04T10:58:49.209Z,12.18
2019-03-04T11:01:18.566Z,12.08
2019-03-04T11:03:48.045Z,12.33
2019-03-04T11:06:17.468Z,13.01
2019-03-04T11:08:46.830Z,12.83
2019-03-04T11:11:29.285Z,13.12
2019-03-04T11:13:50.438Z,13.24
2019-03-04T11:16:19.745Z,13.10
2019-03-04T11:18:49.079Z,13.31
2019-03-04T11:21:18.434Z,13.33
2019-03-04T11:23:48.054Z,13.54
2019-03-04T11:26:17.361Z,12.97
2019-03-04T11:28:47.032Z,13.34
2019-03-04T11:31:16.617Z,13.79
2019-03-04T11:33:46.229Z,13.73
2019-03-04T11:36:20.551Z,13.70
2019-03-04T11:43:39.603Z,14.35
2019-03-04T11:46:32.531Z,14.56
2019-03-04T11:53:33.387Z,14.85
2019-03-04T11:56:32.433Z,14.40
2019-03-04T11:59:32.380Z,15.89
2019-03-04T12:02:39.048Z,15.85
2019-03-04T12:05:32.044Z,14.03
2019-03-04T12:08:34.109Z,14.50
2019-03-04T12:11:38.140Z,14.21
2019-03-04T12:14:33.779Z,13.91
2019-03-04T12:17:31.232Z,14.68
2019-03-04T12:20:33.272Z,14.10
2019-03-04T12:25:51.649Z,15.88
2019-03-04T12:28:32.953Z,15.27
2019-03-04T12:31:02.374Z,15.36
2019-03-04T12:33:31.643Z,15.90
2019-03-04T12:36:01.146Z,16.01
2019-03-04T12:38:30.475Z,14.86
2019-03-04T12:41:01.509Z,15.02
2019-03-04T12:43:30.901Z,14.46
2019-03-04T12:46:00.285Z,14.27
2019-03-04T12:48:29.776Z,13.82
2019-03-04T12:50:59.032Z,14.50
2019-03-04T12:53:37.036Z,13.71
2019-03-04T12:55:59.565Z,13.84
2019-03-04T12:58:28.824Z,13.87
2019-03-04T13:00:58.279Z,13.48
2019-03-04T13:03:27.567Z,13.71
2019-03-04T13:05:56.978Z,13.53
2019-03-04T13:08:26.247Z,13.41
2019-03-04T13:10:55.721Z,13.53
2019-03-04T13:13:25.030Z,13.51
2019-03-04T13:15:55.691Z,13.58
2019-03-04T13:18:25.114Z,13.95
2019-03-04T13:20:54.459Z,14.79
2019-03-04T13:23:24.070Z,14.82
2019-03-04T13:25:53.389Z,14.50
2019-03-04T13:28:22.731Z,14.54
2019-03-04T13:30:52.308Z,14.01
2019-03-04T13:33:21.750Z,14.06
2019-03-04T13:35:51.009Z,14.22
2019-03-04T13:38:20.372Z,14.01
2019-03-04T13:40:49.638Z,14.07
2019-03-04T13:43:33.843Z,14.43
2019-03-04T13:46:03.106Z,14.43
2019-03-04T13:48:32.461Z,14.17
2019-03-04T13:51:01.757Z,14.65
2019-03-04T13:53:34.148Z,14.77
2019-03-04T13:56:03.534Z,14.80
2019-03-04T13:58:32.959Z,14.28
2019-03-04T14:01:02.226Z,14.32
2019-03-04T14:03:31.499Z,15.44
2019-03-04T14:06:00.794Z,15.31
2019-03-04T14:08:30.151Z,15.63
2019-03-04T14:10:59.424Z,15.66
2019-03-04T14:13:28.704Z,14.67
2019-03-04T14:15:58.088Z,15.22
2019-03-04T14:18:27.426Z,15.37
2019-03-04T14:20:56.746Z,15.47
2019-03-04T14:23:25.926Z,15.17
2019-03-04T14:25:55.440Z,15.54
2019-03-04T14:28:24.748Z,15.49
2019-03-04T14:30:54.021Z,15.59
2019-03-04T14:33:23.263Z,15.15
2019-03-04T14:35:52.546Z,15.43
2019-03-04T14:38:21.809Z,15.66
2019-03-04T14:40:51.124Z,15.00
2019-03-04T14:43:20.404Z,15.60
2019-03-04T14:45:49.739Z,14.88
2019-03-04T14:48:19.104Z,15.47
2019-03-04T14:50:48.388Z,15.71
2019-03-04T14:53:17.928Z,14.89
2019-03-04T14:55:47.210Z,15.38
2019-03-04T14:58:16.468Z,15.14
2019-03-04T15:00:47.451Z,15.63
2019-03-04T15:03:23.100Z,15.57
2019-03-04T15:05:48.026Z,15.86
2019-03-04T15:08:17.290Z,15.21
2019-03-04T15:10:46.577Z,15.27
2019-03-04T15:13:15.901Z,15.10
2019-03-04T15:15:45.269Z,14.43
2019-03-04T15:18:14.816Z,14.86
2019-03-04T15:20:44.160Z,15.28
2019-03-04T15:23:13.622Z,15.63
2019-03-04T15:25:43.061Z,14.74
2019-03-04T15:28:17.582Z,14.29
2019-03-04T15:30:48.077Z,14.83
2019-03-04T15:33:18.773Z,14.84
2019-03-04T15:35:48.275Z,15.25
2019-03-04T15:38:17.602Z,14.86
2019-03-04T15:40:46.905Z,15.11
2019-03-04T15:43:16.266Z,14.70
2019-03-04T15:45:47.611Z,14.77
2019-03-04T15:48:17.275Z,14.73
2019-03-04T15:50:46.549Z,15.04
2019-03-04T15:53:15.982Z,15.13
2019-03-04T15:59:34.392Z,14.80
2019-03-04T16:02:08.720Z,14.49
2019-03-04T16:04:38.038Z,15.44
2019-03-04T16:07:08.837Z,15.15
2019-03-04T16:09:38.162Z,15.21
2019-03-04T16:12:08.152Z,15.24
2019-03-04T16:14:37.448Z,15.12
2019-03-04T16:17:08.940Z,14.63
2019-03-04T16:19:38.282Z,14.25
2019-03-04T16:22:07.595Z,14.44
2019-03-04T16:24:36.906Z,14.57
2019-03-04T16:27:11.214Z,14.36
2019-03-04T16:29:40.546Z,14.26
2019-03-04T16:32:09.850Z,14.48
2019-03-04T16:34:39.172Z,14.59
2019-03-04T16:37:09.075Z,14.48
2019-03-04T16:39:38.373Z,14.54
2019-03-04T16:42:09.111Z,14.24
2019-03-04T16:44:40.002Z,13.76
2019-03-04T16:47:09.408Z,13.99
2019-03-04T16:49:38.744Z,13.53
2019-03-04T16:52:09.215Z,13.38
2019-03-04T16:54:38.530Z,13.15
2019-03-04T16:57:14.293Z,13.32
2019-03-04T16:59:43.734Z,13.68
2019-03-04T17:02:13.028Z,13.27
2019-03-04T17:04:42.366Z,13.05
2019-03-04T17:07:11.632Z,13.04
2019-03-04T17:10:34.302Z,13.59
2019-03-04T17:15:50.736Z,12.95
2019-03-04T17:18:20.036Z,13.15
2019-03-04T17:20:49.326Z,13.07
2019-03-04T17:23:18.750Z,13.34
2019-03-04T17:25:48.085Z,13.20
2019-03-04T17:28:32.551Z,13.06
2019-03-04T17:31:01.865Z,13.04
2019-03-04T17:33:34.275Z,13.06
2019-03-04T17:36:03.708Z,13.08
2019-03-04T17:38:33.000Z,13.17
2019-03-04T17:41:02.340Z,12.84
2019-03-04T17:43:32.553Z,12.76
2019-03-04T17:46:02.009Z,12.76
2019-03-04T17:48:34.406Z,12.99
2019-03-04T17:51:03.819Z,12.97
2019-03-04T17:53:33.099Z,12.99
2019-03-04T17:56:32.416Z,13.14
2019-03-04T17:59:01.785Z,12.79
2019-03-04T18:01:34.187Z,12.64
2019-03-04T18:04:03.562Z,12.47
2019-03-04T18:06:32.920Z,12.53
2019-03-04T18:09:02.298Z,12.51
2019-03-04T18:11:31.794Z,12.16
2019-03-04T18:14:01.108Z,12.25
2019-03-04T18:16:30.618Z,12.28
2019-03-04T18:18:59.937Z,12.43
2019-03-04T18:21:29.294Z,12.60
2019-03-04T18:23:58.744Z,12.26
2019-03-04T18:26:51.554Z,12.40
2019-03-04T18:30:07.488Z,12.53
2019-03-04T18:33:20.903Z,12.58
2019-03-04T18:36:14.796Z,13.08
2019-03-04T18:39:15.364Z,13.23
2019-03-04T18:42:22.997Z,12.92
2019-03-04T18:45:44.274Z,12.64
2019-03-04T18:48:25.171Z,12.84
2019-03-04T18:50:54.497Z,12.95
2019-03-04T18:53:23.868Z,12.64
2019-03-04T18:55:53.233Z,12.66
2019-03-04T18:58:22.608Z,12.88
2019-03-04T19:00:51.918Z,12.35
2019-03-04T19:03:21.316Z,12.38
2019-03-04T19:05:50.654Z,12.22
2019-03-04T19:08:20.003Z,12.46
2019-03-04T19:10:49.341Z,12.80
2019-03-04T19:13:18.672Z,12.08
2019-03-04T19:15:47.988Z,11.44
2019-03-04T19:18:17.305Z,11.56
2019-03-04T19:20:46.678Z,11.35
2019-03-04T19:23:15.951Z,11.19
2019-03-04T19:25:45.219Z,11.15
2019-03-04T19:28:14.473Z,11.08
2019-03-04T19:30:43.891Z,11.34
2019-03-04T19:33:13.318Z,10.96
2019-03-04T19:35:42.758Z,11.22
2019-03-04T19:38:12.165Z,11.28
2019-03-04T19:40:41.554Z,11.22
2019-03-04T19:43:10.871Z,10.98
2019-03-04T19:45:40.205Z,11.23
2019-03-04T19:48:09.606Z,11.11
2019-03-04T19:50:39.018Z,11.13
2019-03-04T19:53:10.221Z,11.14
2019-03-04T19:55:39.802Z,11.15
2019-03-04T19:58:09.175Z,11.09
2019-03-04T20:00:38.617Z,11.15
2019-03-04T20:03:08.277Z,11.28
2019-03-04T20:05:37.672Z,11.17
2019-03-04T20:08:06.986Z,11.23
2019-03-04T20:22:29.360Z,11.38
2019-03-04T21:01:31.837Z,12.00
2019-03-04T21:04:33.782Z,12.30
2019-03-04T21:07:29.526Z,11.92
2019-03-04T21:09:58.841Z,12.13
2019-03-04T21:12:28.220Z,11.72
2019-03-04T21:14:57.538Z,11.81
2019-03-04T21:17:26.974Z,11.27
2019-03-04T21:19:56.305Z,11.81
2019-03-04T21:22:25.667Z,11.46
2019-03-04T21:24:55.059Z,11.96
2019-03-04T21:27:24.343Z,11.78
2019-03-04T21:30:15.976Z,11.50
2019-03-04T21:33:20.880Z,11.64
2019-03-04T21:36:00.584Z,11.45
2019-03-04T21:38:34.053Z,11.21
2019-03-04T21:41:35.400Z,11.36
2019-03-04T21:44:36.290Z,11.06
2019-03-04T21:47:20.124Z,11.30
2019-03-04T21:49:52.187Z,11.30
2019-03-04T21:52:42.301Z,11.48
2019-03-04T21:55:15.908Z,11.61
2019-03-04T21:57:51.120Z,11.59
2019-03-04T22:00:25.774Z,11.84
2019-03-04T22:02:59.664Z,11.59
2019-03-04T22:05:29.017Z,11.72
2019-03-04T22:07:58.428Z,11.61
2019-03-04T22:10:27.840Z,11.13
2019-03-04T22:12:57.423Z,11.55
2019-03-04T22:15:27.676Z,11.31
2019-03-04T22:17:56.942Z,11.82
2019-03-04T22:20:26.538Z,11.79
2019-03-04T22:22:55.922Z,11.83
2019-03-04T22:25:25.195Z,12.10
2019-03-04T22:27:54.474Z,11.77
2019-03-04T22:30:23.827Z,11.99
2019-03-04T22:32:53.090Z,11.66
2019-03-04T22:35:22.389Z,11.81
2019-03-04T22:37:51.685Z,11.70
2019-03-04T22:40:21.271Z,11.73
2019-03-04T22:42:50.577Z,12.03
2019-03-04T22:45:19.909Z,12.05
2019-03-04T22:47:49.668Z,11.64
2019-03-04T22:50:19.458Z,11.99
2019-03-04T22:52:48.764Z,12.18
2019-03-04T22:55:21.155Z,12.03
2019-03-04T22:57:50.496Z,12.08
2019-03-04T23:01:20.328Z,12.36
2019-03-04T23:03:49.847Z,12.20
2019-03-04T23:06:22.633Z,12.08
2019-03-04T23:08:50.997Z,12.53
2019-03-04T23:11:22.187Z,12.10
2019-03-04T23:14:07.448Z,12.11
2019-03-04T23:16:36.698Z,12.30
2019-03-04T23:19:05.948Z,11.69
2019-03-04T23:21:35.228Z,11.55
2019-03-04T23:24:04.620Z,11.64
2019-03-04T23:26:35.278Z,11.54
2019-03-04T23:29:04.958Z,12.04
2019-03-04T23:31:34.281Z,11.95
2019-03-04T23:34:03.543Z,11.32
2019-03-04T23:36:32.791Z,11.51
2019-03-04T23:39:02.067Z,11.69
2019-03-04T23:41:31.313Z,11.92
2019-03-04T23:44:00.585Z,11.40
2019-03-04T23:46:29.839Z,11.47
2019-03-04T23:48:59.175Z,12.00
2019-03-04T23:51:28.460Z,12.07
2019-03-04T23:53:57.740Z,12.23
2019-03-04T23:56:26.979Z,11.75
2019-03-04T23:58:56.238Z,11.74
